Combs, Arkansas
Current Conditions -  °F | °C
As of 2:53 AM on Friday 31 Oct 2014 (Local Time) from KFYV Reporting Station
Clear Clear  
Wind Chill: 47°   Ceiling: Unl
Heat Index: 49°   Visibility: 10mi
Dew Point: 40°   Wind: 6mph
Humidity: 71%   Direction: 360°N
Pressure: 30.16"   Gusts: NA
Location:  35.83°N, 93.84°W
Report Text: KFYV 310753Z AUTO 36005KT 10SM CLR 09/04 A3016 RMK AO2 SLP208 T00940044
Loading
Personal Weather Stations






























Interactive Weather Map
Tropical Storm Tracking
New forecast layout! Learn more

10-Day Weather Forecast

Advertisements
Track Severe Weather on mobile